Time;durP1;ratioP1;P1;durP2;ratioP2;P2;SDS_P1;SDS_P2;PMS_P1;PMS_P2;Temp;Humidity;BMP_temperature;BMP_pressure;BME280_temperature;BME280_humidity;BME280_pressure;Samples;Min_cycle;Max_cycle;Signal;HPM_P1;HPM_P2
2022/06/21 00:01:21;;;;;;;;;15.25;14.25;;;;;20.91;51.08;101121.03;5057945;28;45454;-65
2022/06/21 00:03:49;;;;;;;;;19.75;19.00;;;;;20.92;51.34;101116.50;5057997;28;45449;-63
2022/06/21 00:06:23;;;;;;;;;17.00;17.00;;;;;20.89;51.30;101108.78;5058139;28;45458;-66
2022/06/21 00:08:50;;;;;;;;;16.75;16.25;;;;;20.89;51.23;101111.47;5058073;28;45500;-63
2022/06/21 00:11:30;;;;;;;;;17.00;17.00;;;;;20.85;51.27;101105.56;5058280;28;45336;-64
2022/06/21 00:13:56;;;;;;;;;16.25;15.50;;;;;20.81;51.67;101109.53;5057872;28;45511;-63
2022/06/21 00:16:24;;;;;;;;;15.00;15.00;;;;;20.79;51.54;101097.28;5056672;28;47982;-64
2022/06/21 00:18:50;;;;;;;;;15.25;14.75;;;;;20.77;51.59;101088.53;5063197;28;45524;-65
2022/06/21 00:21:32;;;;;;;;;14.25;13.25;;;;;20.75;51.46;101085.19;5059087;28;45510;-67
2022/06/21 00:23:58;;;;;;;;;18.50;18.00;;;;;20.73;51.28;101088.00;5057929;28;45581;-66
2022/06/21 00:26:26;;;;;;;;;15.00;14.50;;;;;20.72;51.63;101088.16;5057905;28;46091;-66
2022/06/21 00:28:52;;;;;;;;;17.25;15.50;;;;;20.70;51.41;101082.13;5057423;28;45754;-65
2022/06/21 00:31:21;;;;;;;;;16.50;15.75;;;;;20.66;51.58;101081.56;5056624;28;45452;-65
2022/06/21 00:33:48;;;;;;;;;12.25;12.25;;;;;20.66;51.86;101081.56;5051525;28;45425;-65
2022/06/21 00:36:29;;;;;;;;;15.00;13.75;;;;;20.66;51.74;101094.09;5057917;28;45518;-69
2022/06/21 00:38:57;;;;;;;;;15.50;14.00;;;;;20.66;52.10;101094.09;5057456;28;45450;-64
2022/06/21 00:41:50;;;;;;;;;3.75;1.00;;;;;20.60;51.69;101082.13;5057386;28;45300;-65
2022/06/21 00:44:38;;;;;;;;;9.25;9.25;;;;;20.55;51.86;101082.59;5055177;28;45530;-65
2022/06/21 00:47:22;;;;;;;;;13.25;11.50;;;;;20.51;51.75;101094.56;5058772;28;45383;-65
2022/06/21 00:49:58;;;;;;;;;12.75;11.25;;;;;20.47;52.11;101082.50;5059711;28;45450;-64
2022/06/21 00:52:42;;;;;;;;;13.00;10.25;;;;;20.43;51.71;101077.53;5046831;28;45238;-65
2022/06/21 00:55:29;;;;;;;;;11.50;10.00;;;;;20.38;51.52;101080.66;5061360;28;45185;-64
2022/06/21 00:57:56;;;;;;;;;10.00;10.00;;;;;20.34;52.06;101074.75;5063410;28;45331;-64
2022/06/21 01:00:27;;;;;;;;;10.75;9.50;;;;;20.31;51.89;101075.03;5063122;28;45312;-65
2022/06/21 01:02:53;;;;;;;;;9.75;9.25;;;;;20.29;51.62;101078.84;5063271;28;45449;-65
2022/06/21 01:05:21;;;;;;;;;10.50;10.00;;;;;20.25;52.26;101091.66;5063558;28;45283;-65
2022/06/21 01:07:47;;;;;;;;;9.50;8.75;;;;;20.18;52.16;101093.22;5063150;28;46218;-65
2022/06/21 01:10:16;;;;;;;;;10.00;9.25;;;;;20.12;51.76;101101.84;5063179;28;45398;-65
2022/06/21 01:12:49;;;;;;;;;10.00;8.25;;;;;20.10;51.88;101087.75;5063058;28;45387;-65
2022/06/21 01:15:21;;;;;;;;;9.75;9.25;;;;;20.12;52.25;101096.47;5063145;28;45271;-65
2022/06/21 01:17:50;;;;;;;;;12.50;10.00;;;;;20.12;51.91;101090.28;5062953;28;46172;-65
2022/06/21 01:20:21;;;;;;;;;10.00;9.25;;;;;20.13;51.88;101086.63;5071187;27;45361;-65
2022/06/21 01:22:53;;;;;;;;;10.75;10.75;;;;;20.14;51.91;101093.66;5062936;28;45316;-64
2022/06/21 01:25:46;;;;;;;;;11.25;11.25;;;;;20.12;51.82;101091.13;5063052;28;45273;-64
2022/06/21 01:28:12;;;;;;;;;11.25;7.50;;;;;20.10;51.78;101094.94;5062498;28;45362;-65
2022/06/21 01:30:38;;;;;;;;;10.25;10.00;;;;;20.08;52.20;101090.59;5061506;28;45184;-65
2022/06/21 01:33:05;;;;;;;;;9.25;9.25;;;;;20.07;51.94;101094.25;5063127;28;45418;-65
2022/06/21 01:35:46;;;;;;;;;13.00;8.50;;;;;20.07;52.04;101090.75;5062921;28;45201;-64
2022/06/21 01:38:17;;;;;;;;;8.25;8.25;;;;;20.03;52.09;101082.13;5062930;28;45348;-64
2022/06/21 01:40:47;;;;;;;;;12.50;11.25;;;;;19.96;52.31;101086.38;5062473;28;45264;-64
2022/06/21 01:43:19;;;;;;;;;11.00;11.00;;;;;19.93;52.34;101088.50;5062442;28;45232;-65
2022/06/21 01:45:51;;;;;;;;;10.75;10.75;;;;;19.90;52.06;101099.47;5062767;28;45331;-64
2022/06/21 01:48:24;;;;;;;;;11.25;10.25;;;;;19.83;52.05;101109.91;5062725;28;45238;-64
2022/06/21 01:50:56;;;;;;;;;11.25;9.75;;;;;19.79;52.22;101109.34;5062188;28;45430;-64
2022/06/21 01:53:24;;;;;;;;;10.00;9.25;;;;;19.78;52.69;101113.00;5062847;28;45307;-64
2022/06/21 01:56:00;;;;;;;;;11.00;9.00;;;;;19.83;52.27;101117.06;5062502;28;45232;-64
2022/06/21 01:58:30;;;;;;;;;7.75;6.75;;;;;19.83;52.15;101131.28;5061929;28;45502;-64
2022/06/21 02:01:02;;;;;;;;;8.00;8.00;;;;;19.84;52.79;101145.50;5062250;28;45351;-64
2022/06/21 02:03:35;;;;;;;;;10.25;9.00;;;;;19.85;52.33;101153.38;5062293;28;45456;-64
2022/06/21 02:06:05;;;;;;;;;10.75;9.00;;;;;19.88;52.40;101174.47;5061933;28;45480;-64
2022/06/21 02:08:43;;;;;;;;;8.50;7.75;;;;;19.86;52.52;101191.66;5062321;28;47070;-64
2022/06/21 02:11:16;;;;;;;;;8.75;8.50;;;;;19.85;52.87;101201.50;5062251;28;45319;-60
2022/06/21 02:13:47;;;;;;;;;8.25;6.50;;;;;19.85;52.79;101195.31;5062318;28;45370;-65
2022/06/21 02:16:20;;;;;;;;;11.25;10.75;;;;;19.84;52.76;101186.44;5062246;28;45344;-66
2022/06/21 02:18:53;;;;;;;;;11.25;10.25;;;;;19.85;52.88;101179.28;5067062;27;45222;-66
2022/06/21 02:21:31;;;;;;;;;11.25;11.25;;;;;19.86;52.86;101170.25;5065703;28;45394;-66
2022/06/21 02:23:58;;;;;;;;;11.00;10.25;;;;;19.85;52.59;101171.25;5062253;28;45436;-66
2022/06/21 02:26:25;;;;;;;;;11.50;9.50;;;;;19.85;52.94;101168.56;5062071;28;45271;-66
2022/06/21 02:28:51;;;;;;;;;11.25;10.75;;;;;19.84;52.47;101164.22;5061768;28;45581;-66
2022/06/21 02:31:18;;;;;;;;;9.00;9.00;;;;;19.82;52.44;101150.97;5061774;28;45209;-66
2022/06/21 02:33:47;;;;;;;;;9.50;9.00;;;;;19.81;52.34;101141.25;5062042;28;45263;-66
2022/06/21 02:36:21;;;;;;;;;11.00;9.75;;;;;19.78;52.69;101128.19;5061860;28;45451;-66
2022/06/21 02:38:55;;;;;;;;;8.25;8.25;;;;;19.73;52.54;101101.88;5061937;28;45484;-66
2022/06/21 02:41:28;;;;;;;;;9.75;9.75;;;;;19.70;52.70;101091.47;5061505;28;45185;-66
2022/06/21 02:44:00;;;;;;;;;10.00;8.75;;;;;19.68;52.73;101085.44;5061554;28;45291;-66
2022/06/21 02:46:34;;;;;;;;;11.00;9.00;;;;;19.69;52.70;101076.41;5061339;28;45465;-66
2022/06/21 02:49:32;;;;;;;;;9.50;9.00;;;;;19.67;52.56;101078.41;5061490;28;45781;-66
2022/06/21 02:52:03;;;;;;;;;7.75;7.75;;;;;19.67;53.21;101074.84;5061515;28;45326;-66
2022/06/21 02:54:52;;;;;;;;;10.25;9.00;;;;;19.67;53.13;101081.06;5061823;28;45503;-66
2022/06/21 02:57:26;;;;;;;;;10.50;9.00;;;;;19.68;52.95;101084.59;5061471;28;45220;-66
2022/06/21 02:59:53;;;;;;;;;10.00;8.25;;;;;19.64;52.67;101083.16;5061419;28;46302;-66
2022/06/21 03:02:25;;;;;;;;;9.75;7.50;;;;;19.64;53.22;101086.69;5060976;28;45498;-65
2022/06/21 03:04:53;;;;;;;;;9.25;8.75;;;;;19.63;52.75;101073.47;5061573;28;45260;-66
2022/06/21 03:07:32;;;;;;;;;8.00;8.00;;;;;19.65;52.82;101079.50;5062451;28;45174;-66
2022/06/21 03:09:59;;;;;;;;;9.25;8.00;;;;;19.62;52.98;101077.13;5065360;28;45369;-66
2022/06/21 03:12:28;;;;;;;;;12.50;10.00;;;;;19.59;53.00;101070.25;5061309;28;45304;-66
2022/06/21 03:14:59;;;;;;;;;10.00;10.00;;;;;19.57;52.71;101068.69;5061087;28;45393;-66
2022/06/21 03:17:43;;;;;;;;;11.25;9.00;;;;;19.53;53.26;101060.94;5061067;28;45485;-66
2022/06/21 03:20:14;;;;;;;;;9.50;9.50;;;;;19.47;53.12;101048.13;5071430;27;45455;-66
2022/06/21 03:22:41;;;;;;;;;9.50;9.50;;;;;19.46;52.95;101042.94;5061244;28;45170;-66
2022/06/21 03:25:17;;;;;;;;;11.00;10.00;;;;;19.43;53.16;101040.50;5060962;28;45261;-66
2022/06/21 03:27:50;;;;;;;;;8.00;8.00;;;;;19.40;52.87;101036.31;5061137;28;45323;-66
2022/06/21 03:30:19;;;;;;;;;9.50;9.50;;;;;19.38;53.16;101021.41;5060939;28;46023;-66
2022/06/21 03:32:45;;;;;;;;;12.00;8.75;;;;;19.33;53.04;101005.78;5060714;28;45312;-65
2022/06/21 03:35:13;;;;;;;;;10.25;8.75;;;;;19.30;53.47;100994.56;5060964;28;45457;-65
2022/06/21 03:37:40;;;;;;;;;10.00;7.50;;;;;19.28;53.58;100991.19;5061080;28;45626;-66
2022/06/21 03:42:56;;;;;;;;;9.00;8.50;;;;;19.22;53.02;100972.06;5060738;28;45311;-66
2022/06/21 03:45:35;;;;;;;;;8.75;8.75;;;;;19.17;53.10;100963.63;5061031;28;45307;-66
2022/06/21 03:48:20;;;;;;;;;8.00;8.00;;;;;19.12;53.55;100967.72;5061198;28;45471;-66
2022/06/21 03:50:55;;;;;;;;;10.50;9.00;;;;;19.06;53.29;100955.75;5060508;28;45382;-66
2022/06/21 03:53:33;;;;;;;;;16.00;10.00;;;;;19.03;53.80;100944.50;5058589;28;45354;-66
2022/06/21 03:56:08;;;;;;;;;12.75;10.50;;;;;18.99;53.50;100943.13;5060643;28;45375;-66
2022/06/21 03:58:54;;;;;;;;;11.50;10.00;;;;;18.98;53.45;100928.94;5060457;28;45382;-66
2022/06/21 04:01:44;;;;;;;;;10.75;8.75;;;;;18.98;53.88;100928.09;5060700;28;45548;-66
2022/06/21 04:04:29;;;;;;;;;13.00;10.25;;;;;18.94;53.77;100922.16;5060300;28;45432;-66
2022/06/21 04:07:04;;;;;;;;;10.25;10.25;;;;;18.91;53.90;100920.63;5060473;28;45244;-66
2022/06/21 04:09:58;;;;;;;;;9.75;9.00;;;;;18.87;54.04;100907.69;5060663;28;45398;-65
2022/06/21 04:12:31;;;;;;;;;9.00;8.75;;;;;18.84;54.42;100903.50;5060606;28;46231;-65
2022/06/21 04:15:13;;;;;;;;;8.25;8.25;;;;;18.83;54.57;100903.63;5060292;28;45448;-66
2022/06/21 04:17:44;;;;;;;;;11.75;9.00;;;;;18.79;54.23;100895.03;5060693;28;45454;-67
2022/06/21 04:20:28;;;;;;;;;9.50;8.50;;;;;18.74;54.35;100896.47;5071378;28;45169;-65
2022/06/21 04:23:04;;;;;;;;;9.25;9.25;;;;;18.72;54.71;100898.41;5060375;28;46190;-66
2022/06/21 04:25:35;;;;;;;;;14.25;11.00;;;;;18.71;54.71;100894.91;5060107;28;45363;-66
2022/06/21 04:28:14;;;;;;;;;12.75;11.00;;;;;18.66;54.72;100897.16;5059837;28;45345;-66
2022/06/21 04:31:11;;;;;;;;;9.25;8.75;;;;;18.59;54.83;100891.50;5062600;28;45342;-66
2022/06/21 04:33:55;;;;;;;;;12.25;11.25;;;;;18.54;54.80;100890.22;5061753;28;45945;-67
2022/06/21 04:36:36;;;;;;;;;13.50;11.75;;;;;18.44;55.38;100876.03;5063479;28;45414;-66
2022/06/21 04:39:05;;;;;;;;;11.25;10.00;;;;;18.33;55.15;100885.00;5063766;28;45366;-66
2022/06/21 04:41:38;;;;;;;;;12.75;10.25;;;;;18.27;55.45;100872.22;5063485;28;45339;-66
2022/06/21 04:44:18;;;;;;;;;11.25;11.00;;;;;18.23;55.57;100871.63;5063252;28;45430;-67
2022/06/21 04:46:54;;;;;;;;;12.00;12.00;;;;;18.22;55.89;100869.94;5063300;28;45316;-66
2022/06/21 04:49:26;;;;;;;;;9.00;7.75;;;;;18.21;55.81;100875.44;5063399;28;45308;-66
2022/06/21 04:52:01;;;;;;;;;16.50;11.50;;;;;18.22;56.26;100874.44;5063536;28;45169;-67
2022/06/21 04:54:30;;;;;;;;;14.50;11.75;;;;;18.19;56.03;100870.25;5063602;28;45252;-66
2022/06/21 04:57:09;;;;;;;;;12.00;11.50;;;;;18.19;56.14;100866.72;5063314;28;45430;-67
2022/06/21 04:59:47;;;;;;;;;13.75;10.75;;;;;18.16;56.51;100864.31;5063488;28;45228;-66
2022/06/21 05:02:26;;;;;;;;;10.00;10.00;;;;;18.12;56.52;100872.59;5063397;28;45493;-66
2022/06/21 05:04:59;;;;;;;;;14.75;11.25;;;;;18.08;56.47;100860.50;5063253;28;46160;-67
2022/06/21 05:07:29;;;;;;;;;11.00;9.25;;;;;18.08;56.70;100860.50;5063364;28;45522;-67
2022/06/21 05:09:56;;;;;;;;;10.50;10.00;;;;;18.10;56.96;100865.72;5060904;28;45405;-66
2022/06/21 05:12:35;;;;;;;;;10.25;10.25;;;;;18.12;56.97;100867.28;5063405;28;45342;-67
2022/06/21 05:15:09;;;;;;;;;10.75;10.25;;;;;18.11;57.21;100873.59;5062755;28;45409;-67
2022/06/21 05:17:38;;;;;;;;;11.25;11.00;;;;;18.11;57.26;100884.25;5062890;28;45521;-66
2022/06/21 05:20:11;;;;;;;;;13.25;11.25;;;;;18.12;57.34;100893.94;5073451;27;45438;-61
2022/06/21 05:22:42;;;;;;;;;12.00;11.75;;;;;18.11;57.40;100910.06;5063116;28;45343;-65
2022/06/21 05:25:42;;;;;;;;;14.50;10.00;;;;;18.03;57.45;100913.41;5062799;28;45357;-66
2022/06/21 05:28:17;;;;;;;;;12.00;11.50;;;;;17.99;57.37;100913.81;5061279;28;45613;-65
2022/06/21 05:31:00;;;;;;;;;11.00;10.75;;;;;18.02;57.61;100909.06;5067330;28;45441;-65
2022/06/21 05:33:33;;;;;;;;;11.00;11.00;;;;;18.02;57.61;100914.41;5050393;28;45395;-66
2022/06/21 05:36:06;;;;;;;;;16.00;13.75;;;;;18.08;57.82;100920.97;5068221;28;45452;-66
2022/06/21 05:38:33;;;;;;;;;12.50;12.00;;;;;18.14;57.95;100926.63;5062772;28;45335;-62
2022/06/21 05:41:05;;;;;;;;;13.00;13.00;;;;;18.23;58.04;100932.97;5065431;28;45469;-61
2022/06/21 05:43:38;;;;;;;;;14.75;13.00;;;;;18.29;57.81;100920.91;5062489;28;45357;-62
2022/06/21 05:46:13;;;;;;;;;13.25;12.50;;;;;18.32;57.75;100917.97;5065440;28;45486;-63
2022/06/21 05:48:41;;;;;;;;;15.25;11.75;;;;;18.33;58.10;100906.34;5062605;28;45367;-64
2022/06/21 05:51:16;;;;;;;;;13.75;11.50;;;;;18.35;57.91;100905.22;5062281;28;45467;-63
2022/06/21 05:53:50;;;;;;;;;13.25;12.25;;;;;18.39;57.76;100906.63;5062785;28;45399;-63
2022/06/21 05:56:21;;;;;;;;;14.50;14.50;;;;;18.38;58.01;100920.94;5060955;28;45503;-63
2022/06/21 05:58:53;;;;;;;;;11.25;11.25;;;;;18.40;58.09;100924.31;5061614;28;45366;-63
2022/06/21 06:01:34;;;;;;;;;14.25;13.00;;;;;18.45;58.20;100926.56;5062195;28;45446;-62
2022/06/21 06:04:23;;;;;;;;;16.50;12.00;;;;;18.48;58.02;100912.94;5062527;28;45426;-62
2022/06/21 06:06:51;;;;;;;;;14.75;13.25;;;;;18.72;58.24;100895.75;5065814;28;45559;-58
2022/06/21 06:09:30;;;;;;;;;12.00;10.00;;;;;19.01;58.68;100893.09;5070434;28;45463;-57
2022/06/21 06:12:12;;;;;;;;;13.25;12.00;;;;;19.29;58.40;100902.91;5068841;28;45567;-52
2022/06/21 06:14:45;;;;;;;;;13.25;13.00;;;;;19.48;58.81;100902.84;5062704;28;45382;-48
2022/06/21 06:17:23;;;;;;;;;16.25;11.75;;;;;19.51;58.66;100915.94;5061112;28;46009;-60
2022/06/21 06:20:20;;;;;;;;;17.00;12.75;;;;;19.43;58.58;100906.94;5072276;28;45438;-60
2022/06/21 06:23:32;;;;;;;;;14.25;12.50;;;;;19.30;57.74;100896.56;5057342;28;45366;-61
2022/06/21 06:26:05;;;;;;;;;15.75;13.25;;;;;19.21;58.40;100897.44;5049687;28;45320;-61
2022/06/21 06:28:56;;;;;;;;;15.50;15.50;;;;;19.16;57.85;100897.84;5061446;28;45335;-61
2022/06/21 06:31:26;;;;;;;;;12.00;12.00;;;;;19.19;57.88;100892.22;5061914;28;45381;-61
2022/06/21 06:34:29;;;;;;;;;13.00;13.00;;;;;19.28;57.76;100893.22;5062217;28;45604;-61
2022/06/21 06:37:10;;;;;;;;;15.00;13.00;;;;;19.40;57.78;100894.72;5039727;28;45641;-61
2022/06/21 06:39:37;;;;;;;;;14.50;12.25;;;;;19.47;57.69;100886.97;5059459;28;45364;-60
2022/06/21 06:42:14;;;;;;;;;16.00;12.00;;;;;19.47;57.53;100892.31;5060895;28;45378;-64
2022/06/21 06:44:53;;;;;;;;;13.75;13.00;;;;;19.57;57.70;100905.66;5055319;28;45277;-61
2022/06/21 06:47:28;;;;;;;;;14.75;13.00;;;;;19.66;57.47;100912.81;5057829;28;45793;-60
2022/06/21 06:50:20;;;;;;;;;16.75;12.00;;;;;19.79;57.60;100916.84;5060843;28;46090;-63
2022/06/21 06:52:48;;;;;;;;;11.50;10.50;;;;;19.88;57.45;100919.63;5060427;28;45499;-61
2022/06/21 06:55:25;;;;;;;;;17.50;14.50;;;;;19.97;57.42;100924.09;5060538;28;45281;-61
2022/06/21 06:57:57;;;;;;;;;15.75;13.00;;;;;20.06;57.50;100931.25;5060946;28;45564;-60
2022/06/21 07:00:31;;;;;;;;;17.75;17.00;;;;;20.14;57.50;100931.34;5060812;28;45533;-61
2022/06/21 07:03:01;;;;;;;;;20.00;16.25;;;;;20.22;57.37;100941.31;5060889;28;45577;-60
2022/06/21 07:05:36;;;;;;;;;19.00;17.25;;;;;20.30;57.07;100939.59;5061018;28;45373;-60
2022/06/21 07:08:20;;;;;;;;;20.00;17.00;;;;;20.38;57.39;100932.63;5061078;28;45222;-61
2022/06/21 07:10:49;;;;;;;;;21.50;18.25;;;;;20.41;57.35;100938.53;5060276;28;46068;-60
2022/06/21 07:13:15;;;;;;;;;21.50;18.00;;;;;20.47;57.34;100937.13;5060195;28;45518;-59
2022/06/21 07:15:46;;;;;;;;;16.00;16.00;;;;;20.56;57.23;100936.22;5061311;28;45457;-60
2022/06/21 07:18:20;;;;;;;;;12.75;11.75;;;;;20.65;56.95;100947.88;5061242;28;45216;-62
2022/06/21 07:20:46;;;;;;;;;16.00;14.75;;;;;20.69;57.02;100957.25;5070184;27;46219;-61
2022/06/21 07:23:15;;;;;;;;;16.25;15.50;;;;;20.75;56.89;100953.97;5059937;28;45408;-61
2022/06/21 07:25:54;;;;;;;;;20.75;15.25;;;;;20.81;56.91;100967.63;5054508;28;45933;-61
2022/06/21 07:28:30;;;;;;;;;16.75;14.00;;;;;20.85;56.70;100963.66;5060835;28;45398;-61
2022/06/21 07:31:01;;;;;;;;;14.50;14.50;;;;;20.87;56.74;100961.66;5058538;28;46131;-62
2022/06/21 07:33:36;;;;;;;;;15.00;14.75;;;;;20.88;56.49;100957.16;5061192;28;45625;-61
2022/06/21 07:36:10;;;;;;;;;17.50;14.50;;;;;20.88;56.25;100962.50;5064062;28;45498;-60
2022/06/21 07:38:49;;;;;;;;;19.25;15.75;;;;;20.89;56.59;100959.66;5067866;28;45486;-60
2022/06/21 07:41:27;;;;;;;;;17.25;14.25;;;;;20.95;56.36;100954.69;5067506;28;46116;-63
2022/06/21 07:43:59;;;;;;;;;15.00;13.50;;;;;20.95;56.47;100955.53;5066052;28;45587;-61
2022/06/21 07:46:37;;;;;;;;;14.50;14.50;;;;;20.96;56.31;100961.75;5064714;28;45426;-61
2022/06/21 07:49:22;;;;;;;;;15.25;14.00;;;;;21.02;56.20;100961.13;5065410;28;45562;-61
2022/06/21 07:52:01;;;;;;;;;16.50;13.75;;;;;21.02;56.19;100967.34;5064344;28;45566;-62
2022/06/21 07:54:55;;;;;;;;;16.75;13.00;;;;;20.97;56.20;100958.91;5064618;28;45359;-62
2022/06/21 07:57:46;;;;;;;;;18.50;15.75;;;;;21.01;56.33;100957.59;5068983;28;45528;-62
2022/06/21 08:00:19;;;;;;;;;18.50;17.25;;;;;21.06;56.14;100970.53;5065190;28;45454;-61
2022/06/21 08:08:50;;;;;;;;;19.50;16.25;;;;;21.26;55.91;100960.50;5073450;28;45363;-63
2022/06/21 08:11:24;;;;;;;;;17.50;16.75;;;;;21.30;55.81;100964.56;5070610;28;45581;-61
2022/06/21 08:13:50;;;;;;;;;17.00;13.75;;;;;21.39;56.10;100960.97;5069742;28;45445;-60
2022/06/21 08:16:18;;;;;;;;;13.75;13.75;;;;;21.48;55.98;100960.03;5069994;28;45472;-62
2022/06/21 08:19:01;;;;;;;;;15.50;14.00;;;;;21.60;56.03;100960.63;5074439;27;45405;-61
2022/06/21 08:21:44;;;;;;;;;14.75;13.75;;;;;21.66;55.96;100960.84;5067670;28;45488;-61
2022/06/21 08:24:21;;;;;;;;;20.00;15.25;;;;;21.71;55.87;100963.88;5068242;28;45626;-62
2022/06/21 08:27:24;;;;;;;;;18.75;15.50;;;;;21.71;55.86;100973.75;5069299;28;45469;-62
2022/06/21 08:29:57;;;;;;;;;21.25;16.75;;;;;21.69;55.70;100973.09;5065294;28;45435;-60
2022/06/21 08:32:33;;;;;;;;;20.75;19.50;;;;;21.74;55.92;100974.31;5067098;28;45788;-63
2022/06/21 08:35:19;;;;;;;;;18.00;15.75;;;;;21.80;55.90;100969.28;5062672;28;45572;-64
2022/06/21 08:38:07;;;;;;;;;17.00;17.00;;;;;21.81;55.57;100965.63;5056411;28;45407;-63
2022/06/21 08:40:53;;;;;;;;;14.00;14.00;;;;;21.78;55.61;100977.50;5060226;28;45410;-63
2022/06/21 08:43:42;;;;;;;;;18.50;16.00;;;;;21.84;55.61;100984.91;5060969;28;45672;-64
2022/06/21 08:46:29;;;;;;;;;21.00;17.25;;;;;21.85;55.67;100985.75;5060973;28;46051;-63
2022/06/21 08:49:26;;;;;;;;;15.50;14.00;;;;;21.93;55.87;100985.81;5061133;28;45548;-63
2022/06/21 08:52:25;;;;;;;;;11.75;11.75;;;;;22.04;55.95;100985.56;5055947;28;45639;-63
2022/06/21 08:55:03;;;;;;;;;19.50;16.00;;;;;22.16;55.84;100981.59;5063327;28;45189;-63
2022/06/21 08:57:37;;;;;;;;;19.75;15.25;;;;;22.25;55.89;100969.06;5063354;28;46341;-64
2022/06/21 09:00:44;;;;;;;;;20.75;20.50;;;;;22.22;55.58;100970.25;5063381;28;45382;-64
2022/06/21 09:03:34;;;;;;;;;19.50;17.00;;;;;22.19;55.82;100967.88;5040578;28;45397;-64
2022/06/21 09:06:20;;;;;;;;;15.25;15.25;;;;;22.16;55.41;100970.88;5062258;28;45220;-64
2022/06/21 09:09:19;;;;;;;;;15.25;14.50;;;;;22.15;55.56;100965.69;5063120;28;45278;-64
2022/06/21 09:12:03;;;;;;;;;20.75;17.50;;;;;22.15;55.56;100949.56;5062777;28;45414;-64
2022/06/21 09:14:52;;;;;;;;;20.00;17.00;;;;;22.16;55.52;100956.63;5062975;28;45338;-64
2022/06/21 09:17:51;;;;;;;;;17.25;16.00;;;;;22.11;55.51;100956.25;5063234;28;45245;-64
2022/06/21 09:20:32;;;;;;;;;24.00;19.00;;;;;22.11;55.56;100962.47;5073308;27;46411;-64
2022/06/21 09:23:16;;;;;;;;;13.75;13.75;;;;;22.15;55.70;100963.84;5063036;28;45243;-64
2022/06/21 09:26:01;;;;;;;;;18.50;16.25;;;;;22.20;55.70;100966.88;5063158;28;45336;-64
2022/06/21 09:29:01;;;;;;;;;16.25;15.25;;;;;22.27;55.81;100967.06;5062802;28;45424;-64
2022/06/21 09:31:40;;;;;;;;;20.00;15.25;;;;;22.34;55.75;100973.47;5062783;28;45284;-63
2022/06/21 09:34:21;;;;;;;;;19.75;16.00;;;;;22.40;55.96;100972.81;5062795;28;45338;-63
2022/06/21 09:36:54;;;;;;;;;21.25;19.00;;;;;22.56;55.73;100972.03;5062976;28;45435;-64
2022/06/21 09:39:44;;;;;;;;;20.00;19.00;;;;;22.69;55.62;100956.31;5063038;28;45557;-63
2022/06/21 09:42:18;;;;;;;;;20.50;19.75;;;;;22.77;55.67;100959.03;5062629;28;45260;-63
2022/06/21 09:44:49;;;;;;;;;22.75;20.00;;;;;22.83;55.73;100960.22;5062500;28;45373;-63
2022/06/21 09:48:00;;;;;;;;;18.75;17.00;;;;;22.82;55.75;100958.50;5062513;28;45272;-63
2022/06/21 09:51:12;;;;;;;;;21.50;18.00;;;;;22.88;55.71;100954.34;5056875;28;45422;-63
2022/06/21 09:53:46;;;;;;;;;23.50;20.25;;;;;22.97;55.45;100947.97;5040007;28;46209;-63
2022/06/21 09:56:26;;;;;;;;;23.25;20.00;;;;;23.04;55.26;100947.16;5059182;28;45301;-63
2022/06/21 09:58:55;;;;;;;;;17.00;16.25;;;;;23.12;55.42;100946.31;5062185;28;45384;-63
2022/06/21 10:01:32;;;;;;;;;24.00;19.50;;;;;23.16;55.23;100947.69;5062482;28;45257;-63
2022/06/21 10:04:17;;;;;;;;;17.50;16.50;;;;;23.20;55.58;100943.63;5060628;28;45379;-63
2022/06/21 10:07:00;;;;;;;;;18.25;18.25;;;;;23.25;55.12;100943.97;5062302;28;45296;-63
2022/06/21 10:09:47;;;;;;;;;25.00;22.00;;;;;23.33;55.39;100940.44;5062680;28;45286;-63
2022/06/21 10:12:34;;;;;;;;;19.00;19.00;;;;;23.41;55.28;100937.75;5062127;28;45383;-63
2022/06/21 10:15:21;;;;;;;;;26.00;19.25;;;;;23.43;55.40;100934.88;5061664;28;45382;-63
2022/06/21 10:17:49;;;;;;;;;21.50;17.75;;;;;23.50;54.85;100928.66;5061841;28;45349;-63
2022/06/21 10:20:33;;;;;;;;;18.50;17.50;;;;;23.55;54.81;100926.31;5072922;27;45322;-63
2022/06/21 10:23:26;;;;;;;;;17.00;15.75;;;;;23.62;55.01;100924.66;5061332;28;45240;-63
2022/06/21 10:25:58;;;;;;;;;23.75;19.50;;;;;23.70;54.98;100914.84;5061464;28;46114;-63
2022/06/21 10:28:36;;;;;;;;;18.25;17.75;;;;;23.79;55.20;100921.91;5060844;28;45334;-63
2022/06/21 10:31:20;;;;;;;;;20.00;18.75;;;;;23.90;54.66;100918.84;5061585;28;45238;-63
2022/06/21 10:33:49;;;;;;;;;19.00;17.50;;;;;23.97;55.10;100911.75;5061685;28;45475;-63
2022/06/21 10:36:26;;;;;;;;;19.50;18.75;;;;;24.01;54.90;100904.16;5061333;28;46244;-63
2022/06/21 10:38:52;;;;;;;;;16.50;15.50;;;;;24.06;54.93;100901.81;5061296;28;45245;-63
2022/06/21 10:41:41;;;;;;;;;22.25;19.25;;;;;24.10;54.28;100893.22;5061273;28;45900;-63
2022/06/21 10:44:29;;;;;;;;;17.50;16.00;;;;;24.11;54.23;100894.88;5061257;28;45414;-63
2022/06/21 10:47:03;;;;;;;;;19.50;15.50;;;;;24.15;54.46;100900.75;5061436;28;45491;-63
2022/06/21 10:50:00;;;;;;;;;18.75;16.75;;;;;24.17;54.12;100888.81;5060902;28;45401;-63
2022/06/21 10:53:04;;;;;;;;;18.75;17.75;;;;;24.26;54.12;100886.91;5058946;28;45303;-63
2022/06/21 10:55:48;;;;;;;;;19.00;18.00;;;;;24.37;54.17;100880.31;5038801;28;45606;-63
2022/06/21 10:58:28;;;;;;;;;19.00;17.00;;;;;24.41;54.43;100874.41;5038417;28;45254;-64
2022/06/21 11:01:17;;;;;;;;;17.75;16.00;;;;;24.47;53.91;100886.31;5054443;28;45381;-63
2022/06/21 11:03:51;;;;;;;;;17.75;16.00;;;;;24.53;54.35;100874.81;5061208;28;45318;-63
2022/06/21 11:06:44;;;;;;;;;18.00;18.00;;;;;24.62;53.95;100870.22;5061627;28;45463;-63
2022/06/21 11:09:20;;;;;;;;;17.25;14.25;;;;;24.68;54.14;100864.13;5061310;28;45469;-63
2022/06/21 11:12:52;;;;;;;;;17.50;15.25;;;;;24.73;54.12;100872.50;5061085;28;45419;-63
2022/06/21 11:15:06;;;;;;;;;15.25;12.75;;;;;24.82;53.99;100866.03;5060654;28;45321;-63
2022/06/21 11:17:47;;;;;;;;;16.50;16.00;;;;;24.86;53.36;100863.81;5061551;28;45228;-63
2022/06/21 11:20:33;;;;;;;;;15.25;11.50;;;;;24.93;53.93;100856.69;5071930;27;45379;-63
2022/06/21 11:23:26;;;;;;;;;15.50;13.00;;;;;24.97;53.81;100861.53;5061005;28;45178;-63
2022/06/21 11:26:00;;;;;;;;;16.00;16.00;;;;;25.01;53.29;100862.00;5061159;28;45398;-63
2022/06/21 11:28:57;;;;;;;;;15.00;14.00;;;;;25.07;53.47;100861.31;5061011;28;45421;-64
2022/06/21 11:31:35;;;;;;;;;13.50;12.50;;;;;25.15;53.65;100866.63;5061174;28;46269;-63
2022/06/21 11:34:18;;;;;;;;;15.25;14.25;;;;;25.20;53.03;100861.53;5060911;28;45421;-63
2022/06/21 11:36:53;;;;;;;;;16.00;13.75;;;;;25.27;53.49;100862.44;5060994;28;45286;-63
2022/06/21 11:39:32;;;;;;;;;24.75;20.75;;;;;25.39;52.89;100856.63;5060795;28;45576;-64
2022/06/21 11:42:26;;;;;;;;;18.50;16.50;;;;;25.42;52.90;100864.31;5060367;28;46814;-63
2022/06/21 11:45:09;;;;;;;;;17.50;16.50;;;;;25.33;52.98;100856.31;5060547;28;45314;-63
2022/06/21 11:48:06;;;;;;;;;20.25;16.75;;;;;25.38;53.15;100857.66;5060616;28;45284;-63
2022/06/21 11:51:05;;;;;;;;;17.25;17.00;;;;;25.47;53.17;100854.66;5060615;28;45413;-64
2022/06/21 11:53:50;;;;;;;;;17.75;16.75;;;;;25.55;52.89;100846.47;5060615;28;45541;-64
2022/06/21 11:56:25;;;;;;;;;19.00;16.00;;;;;25.61;53.07;100856.53;5060416;28;45272;-64
2022/06/21 11:59:07;;;;;;;;;16.00;15.75;;;;;25.70;52.63;100854.59;5060320;28;45411;-64
2022/06/21 12:01:53;;;;;;;;;17.00;15.50;;;;;25.81;52.94;100853.28;5060670;28;45341;-64
2022/06/21 12:04:27;;;;;;;;;17.25;16.25;;;;;25.83;52.77;100862.03;5060305;28;45376;-64
2022/06/21 12:07:12;;;;;;;;;17.25;16.50;;;;;25.74;52.54;100864.00;5060446;28;45260;-64
2022/06/21 12:09:47;;;;;;;;;16.75;15.75;;;;;25.65;52.47;100859.69;5060460;28;45467;-64